Time;durP1;ratioP1;P1;durP2;ratioP2;P2;SDS_P1;SDS_P2;PMS_P1;PMS_P2;Temp;Humidity;BMP_temperature;BMP_pressure;BME280_temperature;BME280_humidity;BME280_pressure;Samples;Min_cycle;Max_cycle;Signal;HPM_P1;HPM_P2
2021/07/16 00:01:53;;;;;;;;;;;24.90;54.10;;;;;;5084833;28;19912;-63
2021/07/16 00:04:19;;;;;;;;;;;24.90;54.10;;;;;;5067487;28;20303;-62
2021/07/16 00:06:45;;;;;;;;;;;24.90;54.00;;;;;;5085908;28;19912;-63
2021/07/16 00:09:10;;;;;;;;;;;24.90;54.10;;;;;;5085215;28;19908;-63
2021/07/16 00:11:36;;;;;;;;;;;24.90;54.00;;;;;;5062175;28;19908;-62
2021/07/16 00:14:02;;;;;;;;;;;24.90;54.00;;;;;;5085576;28;20267;-62
2021/07/16 00:16:28;;;;;;;;;;;24.90;54.10;;;;;;5085472;28;19926;-63
2021/07/16 00:18:54;;;;;;;;;;;24.90;54.10;;;;;;5085370;28;19908;-62
2021/07/16 00:21:19;;;;;;;;;;;24.90;54.10;;;;;;5085160;28;20046;-63
2021/07/16 00:23:45;;;;;;;;;;;24.90;54.10;;;;;;5084223;28;19977;-63
2021/07/16 00:26:11;;;;;;;;;;;24.90;54.10;;;;;;5082423;28;20025;-62
2021/07/16 00:28:36;;;;;;;;;;;24.90;54.10;;;;;;5084404;28;20370;-64
2021/07/16 00:31:02;;;;;;;;;;;24.80;54.00;;;;;;5082253;28;19957;-62
2021/07/16 00:33:27;;;;;;;;;;;24.80;54.00;;;;;;5079353;28;20007;-64
2021/07/16 00:35:53;;;;;;;;;;;24.80;54.00;;;;;;5082466;28;20228;-63
2021/07/16 00:38:18;;;;;;;;;;;24.90;54.00;;;;;;5086168;28;19911;-63
2021/07/16 00:40:44;;;;;;;;;;;24.80;54.10;;;;;;5084038;28;20003;-63
2021/07/16 00:43:09;;;;;;;;;;;24.80;54.00;;;;;;5084641;28;19912;-64
2021/07/16 00:45:35;;;;;;;;;;;24.90;54.10;;;;;;5086855;28;19970;-63
2021/07/16 00:48:00;;;;;;;;;;;24.80;54.00;;;;;;5085841;28;20043;-64
2021/07/16 00:50:28;;;;;;;;;;;24.80;54.00;;;;;;5066557;28;19908;-62
2021/07/16 00:52:55;;;;;;;;;;;24.80;54.00;;;;;;5085535;28;19912;-63
2021/07/16 00:55:21;;;;;;;;;;;24.80;54.00;;;;;;5080388;28;20003;-63
2021/07/16 00:57:46;;;;;;;;;;;24.80;54.00;;;;;;5081633;28;20434;-64
2021/07/16 01:00:12;;;;;;;;;;;24.80;54.10;;;;;;5080895;28;19915;-64
2021/07/16 01:02:38;;;;;;;;;;;24.80;54.00;;;;;;5078990;28;19912;-64
2021/07/16 01:05:08;;;;;;;;;;;24.80;54.10;;;;;;5078933;28;20010;-63
2021/07/16 01:07:33;;;;;;;;;;;24.80;54.10;;;;;;5082948;28;19915;-63
2021/07/16 01:10:00;;;;;;;;;;;24.80;54.00;;;;;;5085963;28;19933;-64
2021/07/16 01:12:26;;;;;;;;;;;24.80;54.10;;;;;;5088895;28;19915;-62
2021/07/16 01:14:52;;;;;;;;;;;24.80;54.10;;;;;;5086828;28;19916;-63
2021/07/16 01:17:17;;;;;;;;;;;24.80;54.10;;;;;;5084512;28;20126;-64
2021/07/16 01:19:46;;;;;;;;;;;24.80;54.10;;;;;;5073336;28;20064;-63
2021/07/16 01:22:13;;;;;;;;;;;24.80;54.10;;;;;;5080305;28;19933;-65
2021/07/16 01:24:39;;;;;;;;;;;24.80;54.10;;;;;;5082944;28;19960;-64
2021/07/16 01:27:05;;;;;;;;;;;24.80;54.10;;;;;;5070844;28;20363;-63
2021/07/16 01:29:31;;;;;;;;;;;24.80;54.10;;;;;;5082143;28;19919;-63
2021/07/16 01:31:56;;;;;;;;;;;24.80;54.10;;;;;;5081526;28;19959;-64
2021/07/16 01:34:22;;;;;;;;;;;24.80;54.10;;;;;;5081149;28;19912;-62
2021/07/16 01:36:47;;;;;;;;;;;24.80;54.10;;;;;;5081822;28;20341;-63
2021/07/16 01:39:13;;;;;;;;;;;24.70;54.10;;;;;;5080100;28;20014;-64
2021/07/16 01:41:39;;;;;;;;;;;24.70;54.10;;;;;;5078014;28;19912;-62
2021/07/16 01:44:06;;;;;;;;;;;24.70;54.10;;;;;;5076061;28;20069;-64
2021/07/16 01:46:32;;;;;;;;;;;24.70;54.10;;;;;;5081469;28;19932;-64
2021/07/16 01:48:58;;;;;;;;;;;24.70;54.10;;;;;;5072542;28;19919;-62
2021/07/16 01:51:23;;;;;;;;;;;24.70;54.10;;;;;;5084168;28;20306;-63
2021/07/16 01:53:49;;;;;;;;;;;24.70;54.10;;;;;;5085364;28;19961;-63
2021/07/16 01:56:16;;;;;;;;;;;24.70;54.10;;;;;;5086517;28;20259;-62
2021/07/16 01:58:42;;;;;;;;;;;24.70;54.10;;;;;;5085211;28;20366;-64
2021/07/16 02:01:14;;;;;;;;;;;24.70;54.10;;;;;;5086574;28;19916;-64
2021/07/16 02:03:39;;;;;;;;;;;24.70;54.10;;;;;;5084572;28;20045;-63
2021/07/16 02:06:05;;;;;;;;;;;24.70;54.10;;;;;;5084432;28;20014;-63
2021/07/16 02:08:31;;;;;;;;;;;24.70;54.10;;;;;;5086501;28;19908;-62
2021/07/16 02:10:56;;;;;;;;;;;24.70;54.10;;;;;;5065446;28;20454;-63
2021/07/16 02:13:24;;;;;;;;;;;24.70;54.10;;;;;;5077081;28;19912;-63
2021/07/16 02:15:51;;;;;;;;;;;24.70;54.10;;;;;;5085137;28;20822;-64
2021/07/16 02:18:17;;;;;;;;;;;24.70;54.10;;;;;;5088902;28;19904;-62
2021/07/16 02:20:43;;;;;;;;;;;24.70;54.20;;;;;;5070068;28;19987;-63
2021/07/16 02:23:09;;;;;;;;;;;24.70;54.10;;;;;;5084469;28;20349;-63
2021/07/16 02:25:35;;;;;;;;;;;24.70;54.10;;;;;;5082754;28;19938;-65
2021/07/16 02:28:03;;;;;;;;;;;24.60;54.10;;;;;;5085781;28;20670;-64
2021/07/16 02:30:28;;;;;;;;;;;24.70;54.10;;;;;;5081416;28;19922;-64
2021/07/16 02:32:55;;;;;;;;;;;24.70;54.10;;;;;;5086754;28;20003;-63
2021/07/16 02:35:21;;;;;;;;;;;24.70;54.70;;;;;;5085848;28;20335;-65
2021/07/16 02:37:47;;;;;;;;;;;24.60;54.10;;;;;;5086007;28;20010;-64
2021/07/16 02:40:14;;;;;;;;;;;24.60;54.10;;;;;;5086379;28;19912;-63
2021/07/16 02:42:40;;;;;;;;;;;24.60;54.10;;;;;;5080667;28;19948;-64
2021/07/16 02:45:06;;;;;;;;;;;24.60;54.20;;;;;;5088085;28;20013;-63
2021/07/16 02:47:32;;;;;;;;;;;24.60;54.10;;;;;;5084400;28;20008;-65
2021/07/16 02:49:58;;;;;;;;;;;24.60;54.10;;;;;;5086263;28;20011;-62
2021/07/16 02:52:24;;;;;;;;;;;24.60;54.10;;;;;;5087518;28;19916;-63
2021/07/16 02:54:49;;;;;;;;;;;24.60;54.10;;;;;;5083142;28;19916;-63
2021/07/16 02:57:15;;;;;;;;;;;24.60;54.20;;;;;;5085251;28;19946;-62
2021/07/16 02:59:40;;;;;;;;;;;24.60;54.10;;;;;;5085925;28;19932;-63
2021/07/16 03:02:08;;;;;;;;;;;24.60;54.10;;;;;;5086276;28;20299;-62
2021/07/16 03:04:33;;;;;;;;;;;24.60;54.20;;;;;;5082190;28;19912;-64
2021/07/16 03:06:59;;;;;;;;;;;24.60;54.20;;;;;;5085056;28;19912;-64
2021/07/16 03:09:24;;;;;;;;;;;24.60;54.20;;;;;;5078165;28;20065;-65
2021/07/16 03:11:50;;;;;;;;;;;24.60;54.20;;;;;;5079083;28;19908;-64
2021/07/16 03:14:15;;;;;;;;;;;24.60;54.20;;;;;;5087170;28;19912;-65
2021/07/16 03:16:41;;;;;;;;;;;24.60;54.20;;;;;;5068619;28;19914;-63
2021/07/16 03:19:06;;;;;;;;;;;24.60;54.20;;;;;;5081765;28;19916;-64
2021/07/16 03:21:33;;;;;;;;;;;24.60;54.20;;;;;;5083302;28;19911;-64
2021/07/16 03:23:58;;;;;;;;;;;24.60;54.20;;;;;;5085169;28;19912;-64
2021/07/16 03:26:24;;;;;;;;;;;24.60;54.20;;;;;;5085564;28;20408;-62
2021/07/16 03:28:49;;;;;;;;;;;24.60;54.20;;;;;;5087201;28;19946;-63
2021/07/16 03:31:15;;;;;;;;;;;24.60;54.20;;;;;;5088054;28;19916;-63
2021/07/16 03:33:40;;;;;;;;;;;24.50;54.10;;;;;;5082474;28;19952;-61
2021/07/16 03:36:06;;;;;;;;;;;24.60;54.20;;;;;;5086816;28;20015;-64
2021/07/16 03:38:32;;;;;;;;;;;24.60;54.20;;;;;;5084361;28;19908;-65
2021/07/16 03:41:00;;;;;;;;;;;24.60;54.20;;;;;;5084231;28;19908;-62
2021/07/16 03:43:25;;;;;;;;;;;24.60;54.20;;;;;;5085174;28;19916;-63
2021/07/16 03:45:51;;;;;;;;;;;24.60;54.20;;;;;;5100530;28;19922;-63
2021/07/16 03:48:17;;;;;;;;;;;24.60;54.20;;;;;;5088068;28;19953;-63
2021/07/16 03:50:42;;;;;;;;;;;24.50;54.10;;;;;;5091796;28;19924;-64
2021/07/16 03:53:08;;;;;;;;;;;24.50;54.20;;;;;;5084125;28;20410;-62
2021/07/16 03:55:34;;;;;;;;;;;24.50;54.20;;;;;;5083369;28;19912;-64
2021/07/16 03:57:59;;;;;;;;;;;24.50;54.20;;;;;;5084990;28;19932;-63
2021/07/16 04:00:28;;;;;;;;;;;24.50;54.20;;;;;;5085552;28;20748;-64
2021/07/16 04:02:54;;;;;;;;;;;24.50;54.20;;;;;;5077908;28;20110;-64
2021/07/16 04:05:20;;;;;;;;;;;24.50;54.20;;;;;;5078729;28;19915;-63
2021/07/16 04:07:46;;;;;;;;;;;24.50;54.20;;;;;;5086362;28;20304;-63
2021/07/16 04:10:13;;;;;;;;;;;24.50;54.20;;;;;;5085688;28;19912;-64
2021/07/16 04:12:39;;;;;;;;;;;24.50;54.20;;;;;;5086124;28;19911;-63
2021/07/16 04:15:04;;;;;;;;;;;24.50;54.20;;;;;;5086692;28;20264;-62
2021/07/16 04:17:32;;;;;;;;;;;24.50;54.20;;;;;;5085657;28;19990;-65
2021/07/16 04:19:57;;;;;;;;;;;24.50;54.20;;;;;;5082018;28;20015;-63
2021/07/16 04:22:23;;;;;;;;;;;24.50;54.20;;;;;;5080728;28;20011;-64
2021/07/16 04:24:49;;;;;;;;;;;24.50;54.20;;;;;;5061285;28;20306;-64
2021/07/16 04:27:15;;;;;;;;;;;24.50;54.30;;;;;;5079459;28;20422;-64
2021/07/16 04:29:41;;;;;;;;;;;24.50;54.20;;;;;;5092724;28;19908;-62
2021/07/16 04:32:07;;;;;;;;;;;24.50;54.20;;;;;;5082355;28;19913;-63
2021/07/16 04:34:34;;;;;;;;;;;24.50;54.20;;;;;;5073981;28;19946;-63
2021/07/16 04:37:00;;;;;;;;;;;24.50;54.20;;;;;;5082176;28;19923;-64
2021/07/16 04:39:25;;;;;;;;;;;24.50;54.20;;;;;;5082792;28;19915;-64
2021/07/16 04:41:51;;;;;;;;;;;24.50;54.20;;;;;;5086967;28;19904;-63
2021/07/16 04:44:16;;;;;;;;;;;24.50;54.20;;;;;;5080936;28;19995;-63
2021/07/16 04:46:42;;;;;;;;;;;24.40;54.20;;;;;;5078424;28;19957;-62
2021/07/16 04:49:07;;;;;;;;;;;24.40;54.10;;;;;;5082861;28;19991;-62
2021/07/16 04:51:34;;;;;;;;;;;24.40;54.20;;;;;;5086092;28;19916;-63
2021/07/16 04:54:00;;;;;;;;;;;24.50;54.20;;;;;;5078052;28;19912;-63
2021/07/16 04:56:26;;;;;;;;;;;24.40;54.00;;;;;;5083772;28;20002;-62
2021/07/16 04:58:52;;;;;;;;;;;24.40;53.60;;;;;;5084429;28;19977;-63
2021/07/16 05:01:18;;;;;;;;;;;24.30;53.70;;;;;;5083175;28;20612;-63
2021/07/16 05:03:44;;;;;;;;;;;24.20;54.00;;;;;;5076348;28;19923;-65
2021/07/16 05:06:12;;;;;;;;;;;24.10;54.20;;;;;;5089202;28;20618;-63
2021/07/16 05:08:38;;;;;;;;;;;24.10;54.40;;;;;;5079830;28;19908;-63
2021/07/16 05:11:04;;;;;;;;;;;24.00;54.40;;;;;;5082418;28;20377;-62
2021/07/16 05:13:31;;;;;;;;;;;24.00;54.70;;;;;;5078452;28;19916;-64
2021/07/16 05:15:57;;;;;;;;;;;23.90;54.90;;;;;;5051879;28;19977;-63
2021/07/16 05:18:22;;;;;;;;;;;23.90;55.20;;;;;;5082937;28;19916;-65
2021/07/16 05:20:48;;;;;;;;;;;23.80;55.30;;;;;;5083769;28;19924;-63
2021/07/16 05:23:13;;;;;;;;;;;23.80;55.50;;;;;;5085234;28;20018;-63
2021/07/16 05:25:39;;;;;;;;;;;23.80;55.70;;;;;;5082955;28;19969;-64
2021/07/16 05:28:04;;;;;;;;;;;23.80;55.60;;;;;;5081672;28;19920;-64
2021/07/16 05:30:30;;;;;;;;;;;23.80;55.70;;;;;;5091713;28;19942;-63
2021/07/16 05:32:55;;;;;;;;;;;23.80;56.10;;;;;;5094525;28;19908;-63
2021/07/16 05:35:21;;;;;;;;;;;23.80;56.10;;;;;;5084613;28;19911;-62
2021/07/16 05:37:47;;;;;;;;;;;23.70;56.20;;;;;;5076931;28;19931;-64
2021/07/16 05:40:13;;;;;;;;;;;23.70;56.10;;;;;;5089385;28;19907;-63
2021/07/16 05:42:39;;;;;;;;;;;23.70;56.50;;;;;;5077804;28;19948;-65
2021/07/16 05:45:05;;;;;;;;;;;23.70;57.20;;;;;;5082178;28;19912;-63
2021/07/16 05:47:31;;;;;;;;;;;23.60;57.40;;;;;;5062157;28;19986;-64
2021/07/16 05:49:56;;;;;;;;;;;23.50;57.30;;;;;;5083287;28;19943;-63
2021/07/16 05:52:23;;;;;;;;;;;23.60;57.60;;;;;;5085693;28;20231;-65
2021/07/16 05:54:48;;;;;;;;;;;23.60;57.80;;;;;;5084230;28;19955;-63
2021/07/16 05:57:14;;;;;;;;;;;23.60;57.80;;;;;;5085503;28;20326;-63
2021/07/16 05:59:39;;;;;;;;;;;23.60;57.30;;;;;;5083590;28;19998;-63
2021/07/16 06:02:05;;;;;;;;;;;23.60;57.40;;;;;;5086407;28;19955;-64
2021/07/16 06:04:31;;;;;;;;;;;23.70;57.30;;;;;;5085277;28;20062;-63
2021/07/16 06:06:57;;;;;;;;;;;23.70;57.20;;;;;;5085634;28;19959;-62
2021/07/16 06:09:23;;;;;;;;;;;23.70;57.10;;;;;;5084544;28;20334;-63
2021/07/16 06:11:49;;;;;;;;;;;23.70;57.40;;;;;;5086270;28;21560;-62
2021/07/16 06:14:14;;;;;;;;;;;23.60;57.10;;;;;;5080386;28;19923;-62
2021/07/16 06:16:40;;;;;;;;;;;23.70;56.80;;;;;;5081887;28;19919;-63
2021/07/16 06:19:05;;;;;;;;;;;23.70;56.60;;;;;;5085448;28;20025;-61
2021/07/16 06:21:31;;;;;;;;;;;23.70;56.70;;;;;;5088420;28;19957;-64
2021/07/16 06:23:56;;;;;;;;;;;23.70;56.70;;;;;;5065005;28;19937;-62
2021/07/16 06:26:22;;;;;;;;;;;23.70;57.10;;;;;;5084353;28;19923;-63
2021/07/16 06:28:47;;;;;;;;;;;23.70;56.80;;;;;;5065161;28;20450;-63
2021/07/16 06:31:13;;;;;;;;;;;23.70;56.90;;;;;;5082489;28;19912;-61
2021/07/16 06:33:38;;;;;;;;;;;23.80;57.00;;;;;;5083410;28;19996;-61
2021/07/16 06:36:04;;;;;;;;;;;23.70;57.10;;;;;;5077628;28;20354;-62
2021/07/16 06:38:30;;;;;;;;;;;23.70;57.10;;;;;;5085413;28;19908;-63
2021/07/16 06:40:55;;;;;;;;;;;23.70;57.10;;;;;;5083121;28;19935;-62
2021/07/16 06:43:21;;;;;;;;;;;23.70;57.10;;;;;;5095549;28;19912;-62
2021/07/16 06:45:46;;;;;;;;;;;23.60;57.50;;;;;;5066111;28;19923;-62
2021/07/16 06:48:12;;;;;;;;;;;23.60;57.10;;;;;;5088630;28;20024;-62
2021/07/16 06:50:37;;;;;;;;;;;23.70;57.00;;;;;;5069881;28;20035;-62
2021/07/16 06:53:03;;;;;;;;;;;23.70;56.80;;;;;;5086641;28;19912;-62
2021/07/16 06:55:29;;;;;;;;;;;23.80;56.70;;;;;;5089164;28;19955;-63
2021/07/16 06:57:55;;;;;;;;;;;23.80;56.50;;;;;;5086764;28;20357;-63
2021/07/16 07:00:20;;;;;;;;;;;23.80;56.30;;;;;;5085592;28;19919;-62
2021/07/16 07:02:46;;;;;;;;;;;23.90;56.40;;;;;;5066721;28;19923;-62
2021/07/16 07:05:11;;;;;;;;;;;23.90;56.30;;;;;;5084795;28;19939;-63
2021/07/16 07:07:37;;;;;;;;;;;24.00;56.20;;;;;;5088623;28;20318;-63
2021/07/16 07:10:03;;;;;;;;;;;24.00;56.10;;;;;;5077858;28;19915;-63
2021/07/16 07:12:28;;;;;;;;;;;24.00;56.00;;;;;;5081320;28;20297;-63
2021/07/16 07:14:54;;;;;;;;;;;24.00;55.90;;;;;;5088045;28;19923;-62
2021/07/16 07:17:20;;;;;;;;;;;24.10;55.70;;;;;;5085312;28;20369;-64
2021/07/16 07:19:45;;;;;;;;;;;24.10;55.70;;;;;;5071068;28;19922;-62
2021/07/16 07:22:11;;;;;;;;;;;24.10;55.70;;;;;;5086110;28;19958;-62
2021/07/16 07:24:36;;;;;;;;;;;24.20;55.60;;;;;;5087878;28;19984;-62
2021/07/16 07:27:02;;;;;;;;;;;24.20;55.60;;;;;;5086159;28;19974;-61
2021/07/16 07:29:30;;;;;;;;;;;24.20;55.50;;;;;;5084839;28;19940;-61
2021/07/16 07:31:56;;;;;;;;;;;24.20;55.50;;;;;;5087920;28;19926;-62
2021/07/16 07:34:22;;;;;;;;;;;24.20;55.40;;;;;;5086303;28;20294;-62
2021/07/16 07:36:49;;;;;;;;;;;24.30;55.40;;;;;;5086307;28;20282;-61
2021/07/16 07:39:15;;;;;;;;;;;24.30;55.40;;;;;;5081015;28;19938;-63
2021/07/16 07:41:45;;;;;;;;;;;24.30;55.30;;;;;;5087631;28;19918;-63
2021/07/16 07:44:11;;;;;;;;;;;24.30;55.40;;;;;;5091389;28;19912;-63
2021/07/16 07:46:37;;;;;;;;;;;24.30;55.80;;;;;;5085301;28;19966;-63
2021/07/16 07:49:03;;;;;;;;;;;24.40;55.30;;;;;;5066165;28;19960;-61
2021/07/16 07:51:31;;;;;;;;;;;24.40;55.20;;;;;;5087109;28;19916;-62
2021/07/16 07:53:56;;;;;;;;;;;24.40;55.00;;;;;;5087517;28;20026;-63
2021/07/16 07:56:22;;;;;;;;;;;24.50;54.90;;;;;;5071230;28;20292;-62
2021/07/16 07:58:47;;;;;;;;;;;24.50;54.80;;;;;;5087071;28;19932;-63
2021/07/16 08:01:12;;;;;;;;;;;24.50;54.70;;;;;;5086294;28;20362;-63
2021/07/16 08:03:38;;;;;;;;;;;24.50;54.60;;;;;;5095146;28;19943;-63
2021/07/16 08:06:05;;;;;;;;;;;24.60;55.20;;;;;;5087449;28;19953;-62
2021/07/16 08:08:31;;;;;;;;;;;24.60;54.60;;;;;;5084022;28;19980;-62
2021/07/16 08:10:57;;;;;;;;;;;24.60;54.60;;;;;;5087067;28;19925;-62
2021/07/16 08:13:22;;;;;;;;;;;24.60;54.50;;;;;;5087996;28;20403;-64
2021/07/16 08:15:48;;;;;;;;;;;24.70;54.40;;;;;;5085346;28;19912;-63
2021/07/16 08:18:13;;;;;;;;;;;24.70;54.30;;;;;;5085605;28;19908;-64
2021/07/16 08:20:39;;;;;;;;;;;24.70;54.20;;;;;;5087052;28;19916;-63
2021/07/16 08:23:04;;;;;;;;;;;24.80;54.10;;;;;;5085478;28;19991;-62
2021/07/16 08:25:30;;;;;;;;;;;24.80;54.10;;;;;;5081335;28;20003;-64
2021/07/16 08:27:56;;;;;;;;;;;24.80;54.10;;;;;;5079788;28;19988;-63
2021/07/16 08:30:21;;;;;;;;;;;24.80;53.90;;;;;;5084980;28;19908;-63
2021/07/16 08:32:47;;;;;;;;;;;24.80;54.10;;;;;;5092573;28;19950;-63
2021/07/16 08:35:13;;;;;;;;;;;24.90;54.00;;;;;;5078722;28;19992;-62
2021/07/16 08:37:39;;;;;;;;;;;24.90;53.90;;;;;;5083036;28;20332;-63
2021/07/16 08:40:05;;;;;;;;;;;24.90;53.90;;;;;;5092424;28;20069;-62
2021/07/16 08:42:31;;;;;;;;;;;24.90;54.00;;;;;;5064266;28;19978;-63
2021/07/16 08:44:56;;;;;;;;;;;24.90;53.80;;;;;;5098472;28;20007;-62
2021/07/16 08:47:22;;;;;;;;;;;24.90;53.70;;;;;;5086787;28;19919;-64
2021/07/16 08:49:48;;;;;;;;;;;25.00;53.80;;;;;;5080760;28;20369;-62
2021/07/16 08:52:13;;;;;;;;;;;25.00;53.70;;;;;;5087282;28;19935;-63
2021/07/16 08:54:46;;;;;;;;;;;25.00;53.70;;;;;;5078437;28;19923;-62
2021/07/16 08:57:14;;;;;;;;;;;25.00;53.50;;;;;;5065144;28;19916;-63
2021/07/16 08:59:39;;;;;;;;;;;25.10;53.60;;;;;;5083012;28;19908;-62
2021/07/16 09:02:05;;;;;;;;;;;25.10;53.60;;;;;;5089583;28;19942;-63
2021/07/16 09:04:36;;;;;;;;;;;25.10;53.50;;;;;;5076104;28;19912;-62
2021/07/16 09:07:01;;;;;;;;;;;25.10;53.50;;;;;;5084431;28;19915;-62
2021/07/16 09:09:38;;;;;;;;;;;25.20;53.40;;;;;;5083513;28;19908;-63
2021/07/16 09:12:08;;;;;;;;;;;25.20;53.50;;;;;;5079270;28;19959;-63
2021/07/16 09:14:34;;;;;;;;;;;25.20;53.40;;;;;;5082743;28;19916;-63
2021/07/16 09:16:59;;;;;;;;;;;25.20;53.40;;;;;;5082977;28;19958;-64
2021/07/16 09:19:26;;;;;;;;;;;25.20;53.40;;;;;;5057912;28;19916;-64
2021/07/16 09:21:58;;;;;;;;;;;25.20;53.40;;;;;;5078473;28;20301;-63
2021/07/16 09:24:24;;;;;;;;;;;25.20;53.30;;;;;;5074907;28;19991;-63
2021/07/16 09:26:50;;;;;;;;;;;25.30;53.30;;;;;;5080118;28;19973;-64
2021/07/16 09:29:25;;;;;;;;;;;25.30;53.30;;;;;;5074470;28;20537;-64
2021/07/16 09:32:00;;;;;;;;;;;25.30;53.20;;;;;;5084381;28;20023;-64
2021/07/16 09:34:26;;;;;;;;;;;25.40;53.30;;;;;;5074421;28;19973;-64
2021/07/16 09:36:51;;;;;;;;;;;25.40;53.20;;;;;;5073631;28;20304;-64
2021/07/16 09:39:24;;;;;;;;;;;25.40;53.30;;;;;;5080983;28;19909;-64
2021/07/16 09:41:51;;;;;;;;;;;25.40;53.20;;;;;;5072194;28;20360;-63
2021/07/16 09:44:40;;;;;;;;;;;25.40;53.10;;;;;;5089928;28;19987;-64
2021/07/16 09:47:16;;;;;;;;;;;25.40;53.00;;;;;;5082734;28;19994;-63
2021/07/16 09:49:47;;;;;;;;;;;25.40;53.00;;;;;;5079234;28;19992;-64
2021/07/16 09:52:19;;;;;;;;;;;25.40;53.00;;;;;;5073592;28;19919;-64
2021/07/16 09:55:03;;;;;;;;;;;25.50;53.00;;;;;;5076541;28;20314;-64
2021/07/16 09:57:48;;;;;;;;;;;25.50;53.00;;;;;;5080735;28;19912;-64
2021/07/16 10:00:21;;;;;;;;;;;25.50;52.90;;;;;;5093058;28;20289;-63
2021/07/16 10:02:51;;;;;;;;;;;25.50;52.90;;;;;;5086230;28;19990;-63
2021/07/16 10:05:16;;;;;;;;;;;25.50;52.90;;;;;;5077381;28;19994;-63
2021/07/16 10:07:43;;;;;;;;;;;25.60;52.90;;;;;;5083412;28;20367;-63
2021/07/16 10:10:15;;;;;;;;;;;25.60;52.90;;;;;;5087569;28;19994;-63
2021/07/16 10:12:44;;;;;;;;;;;25.60;53.00;;;;;;5084018;28;20564;-63
2021/07/16 10:15:11;;;;;;;;;;;25.60;52.90;;;;;;5090008;28;20233;-62
2021/07/16 10:17:36;;;;;;;;;;;25.70;53.00;;;;;;5089664;28;20004;-63
2021/07/16 10:20:02;;;;;;;;;;;25.70;53.00;;;;;;5091548;28;19958;-64
2021/07/16 10:22:28;;;;;;;;;;;25.70;52.90;;;;;;5094488;28;19912;-63
2021/07/16 10:24:53;;;;;;;;;;;25.70;52.80;;;;;;5091542;28;19930;-63
2021/07/16 10:27:19;;;;;;;;;;;25.70;52.80;;;;;;5104767;28;20008;-63
2021/07/16 10:29:48;;;;;;;;;;;25.70;52.80;;;;;;5085313;28;19916;-65
2021/07/16 10:32:39;;;;;;;;;;;25.70;52.80;;;;;;5087377;28;19918;-65
2021/07/16 10:35:15;;;;;;;;;;;25.70;52.80;;;;;;5088992;28;19922;-64
2021/07/16 10:37:40;;;;;;;;;;;25.70;52.70;;;;;;5080517;28;19920;-64
2021/07/16 10:40:06;;;;;;;;;;;25.80;52.70;;;;;;5082486;28;19916;-63
2021/07/16 10:42:35;;;;;;;;;;;25.80;52.70;;;;;;5068857;28;19993;-64
2021/07/16 10:45:04;;;;;;;;;;;25.80;52.70;;;;;;5089081;28;19923;-64
2021/07/16 10:47:33;;;;;;;;;;;25.80;52.70;;;;;;5084948;28;20276;-64
2021/07/16 10:49:59;;;;;;;;;;;25.80;52.80;;;;;;5082380;28;19912;-64
2021/07/16 10:52:44;;;;;;;;;;;25.90;52.90;;;;;;5092868;28;20100;-62
2021/07/16 10:55:09;;;;;;;;;;;25.90;53.00;;;;;;5090215;28;19908;-64
2021/07/16 10:57:40;;;;;;;;;;;25.90;53.00;;;;;;5084860;28;19916;-63
2021/07/16 11:00:05;;;;;;;;;;;25.90;53.00;;;;;;5085965;28;19916;-64
2021/07/16 11:02:40;;;;;;;;;;;25.90;52.90;;;;;;5089473;28;19957;-64
2021/07/16 11:05:29;;;;;;;;;;;26.00;52.80;;;;;;5087154;28;19908;-64
2021/07/16 11:07:55;;;;;;;;;;;26.00;52.80;;;;;;5067096;28;19934;-64
2021/07/16 11:10:39;;;;;;;;;;;26.00;52.80;;;;;;5082876;28;20650;-64
2021/07/16 11:13:23;;;;;;;;;;;26.00;52.90;;;;;;5059684;28;20485;-64
2021/07/16 11:15:48;;;;;;;;;;;26.10;52.80;;;;;;5080084;28;20231;-63
2021/07/16 11:18:25;;;;;;;;;;;26.10;52.80;;;;;;5095469;28;19923;-64
2021/07/16 11:20:50;;;;;;;;;;;26.10;52.80;;;;;;5083597;28;19972;-64
2021/07/16 11:23:19;;;;;;;;;;;26.10;52.80;;;;;;5103929;28;19908;-64
2021/07/16 11:25:45;;;;;;;;;;;26.10;52.90;;;;;;5090211;28;19907;-64
2021/07/16 11:28:10;;;;;;;;;;;26.20;52.90;;;;;;5084603;28;20614;-65
2021/07/16 11:30:36;;;;;;;;;;;26.10;52.80;;;;;;5075555;28;20363;-63
2021/07/16 11:33:03;;;;;;;;;;;26.10;52.90;;;;;;5087728;28;19920;-63
2021/07/16 11:35:30;;;;;;;;;;;26.10;52.80;;;;;;5069712;28;19912;-63
2021/07/16 11:37:55;;;;;;;;;;;26.10;52.80;;;;;;5086401;28;19922;-64
2021/07/16 11:40:23;;;;;;;;;;;26.10;52.70;;;;;;5087908;28;19991;-63
2021/07/16 11:42:49;;;;;;;;;;;26.10;52.70;;;;;;5096260;28;19908;-64
2021/07/16 11:45:20;;;;;;;;;;;26.10;52.70;;;;;;5086424;28;20062;-64
2021/07/16 11:47:46;;;;;;;;;;;26.10;52.70;;;;;;5083048;28;19951;-64
2021/07/16 11:50:12;;;;;;;;;;;26.10;52.70;;;;;;5083049;28;20328;-64
2021/07/16 11:52:40;;;;;;;;;;;26.00;52.60;;;;;;5082567;28;20292;-66
2021/07/16 11:55:07;;;;;;;;;;;26.10;52.60;;;;;;5081407;28;19922;-66
2021/07/16 11:57:33;;;;;;;;;;;26.00;52.60;;;;;;5084070;28;20015;-66
2021/07/16 11:59:59;;;;;;;;;;;26.00;52.60;;;;;;5082675;28;19995;-66
2021/07/16 12:02:25;;;;;;;;;;;26.00;52.60;;;;;;5094468;28;19919;-66
2021/07/16 12:04:55;;;;;;;;;;;26.00;52.60;;;;;;5083856;28;19912;-66
2021/07/16 12:07:21;;;;;;;;;;;26.00;52.60;;;;;;5077844;28;19965;-66
2021/07/16 12:09:47;;;;;;;;;;;26.00;53.10;;;;;;5085391;28;19912;-65
2021/07/16 12:12:14;;;;;;;;;;;26.00;52.70;;;;;;5097925;28;20276;-65
2021/07/16 12:14:54;;;;;;;;;;;26.00;52.70;;;;;;5078073;28;20250;-66
2021/07/16 12:17:21;;;;;;;;;;;25.90;52.60;;;;;;5084972;28;19907;-65
2021/07/16 12:19:46;;;;;;;;;;;25.90;52.60;;;;;;5096675;28;19912;-65
2021/07/16 12:22:13;;;;;;;;;;;25.90;52.60;;;;;;5083040;28;20051;-65
2021/07/16 12:24:39;;;;;;;;;;;25.90;53.10;;;;;;5081214;28;19935;-65
2021/07/16 12:27:14;;;;;;;;;;;25.90;52.60;;;;;;5082509;28;19955;-65
2021/07/16 12:29:40;;;;;;;;;;;25.90;52.60;;;;;;5082901;28;19914;-65
2021/07/16 12:32:06;;;;;;;;;;;25.90;52.60;;;;;;5088040;28;19923;-65
2021/07/16 12:34:32;;;;;;;;;;;25.90;52.70;;;;;;5079003;28;20393;-65
2021/07/16 12:37:11;;;;;;;;;;;25.90;52.70;;;;;;5081302;28;19930;-66
2021/07/16 12:39:38;;;;;;;;;;;25.80;52.60;;;;;;5079529;28;19916;-65
2021/07/16 12:42:21;;;;;;;;;;;25.80;52.60;;;;;;5063704;28;19912;-65
2021/07/16 12:45:05;;;;;;;;;;;25.80;52.60;;;;;;5081337;28;19930;-66
2021/07/16 12:47:31;;;;;;;;;;;25.80;52.60;;;;;;5077550;28;20358;-66
2021/07/16 12:50:05;;;;;;;;;;;25.80;52.60;;;;;;5093012;28;19911;-64
2021/07/16 12:52:31;;;;;;;;;;;25.80;52.60;;;;;;5078862;28;20013;-65
2021/07/16 12:55:16;;;;;;;;;;;25.80;52.70;;;;;;5088505;28;19970;-64
2021/07/16 12:57:42;;;;;;;;;;;25.80;52.60;;;;;;5074459;28;19908;-65
2021/07/16 13:00:16;;;;;;;;;;;25.80;52.60;;;;;;5085433;28;19912;-65
2021/07/16 13:02:41;;;;;;;;;;;25.80;52.60;;;;;;5075196;28;19908;-65
2021/07/16 13:05:07;;;;;;;;;;;25.80;52.60;;;;;;5063415;28;19961;-64
2021/07/16 13:07:33;;;;;;;;;;;25.80;52.60;;;;;;5077220;28;19915;-65
2021/07/16 13:09:58;;;;;;;;;;;25.70;52.50;;;;;;5081258;28;19919;-66
2021/07/16 13:12:30;;;;;;;;;;;25.80;52.60;;;;;;5075909;28;19908;-66
2021/07/16 13:14:59;;;;;;;;;;;25.80;52.60;;;;;;5070613;28;19920;-65
2021/07/16 13:17:33;;;;;;;;;;;25.70;52.60;;;;;;5080918;28;20242;-66
2021/07/16 13:20:02;;;;;;;;;;;25.80;52.70;;;;;;5058859;28;19966;-66
2021/07/16 13:22:28;;;;;;;;;;;25.70;52.60;;;;;;5089070;28;19923;-66
2021/07/16 13:24:54;;;;;;;;;;;25.70;52.60;;;;;;5071297;28;19978;-65
2021/07/16 13:27:20;;;;;;;;;;;25.70;52.60;;;;;;5086971;28;19915;-66
2021/07/16 13:29:46;;;;;;;;;;;25.70;52.60;;;;;;5081959;28;20742;-65
2021/07/16 13:32:12;;;;;;;;;;;25.70;52.60;;;;;;5069499;28;19944;-65
2021/07/16 13:34:38;;;;;;;;;;;25.70;52.60;;;;;;5082693;28;19915;-65
2021/07/16 13:37:03;;;;;;;;;;;25.70;52.60;;;;;;5064931;28;20166;-66
2021/07/16 13:39:29;;;;;;;;;;;25.70;52.60;;;;;;5089164;28;20255;-64
2021/07/16 13:41:54;;;;;;;;;;;25.70;52.60;;;;;;5088427;28;19989;-65
2021/07/16 13:44:20;;;;;;;;;;;25.70;52.60;;;;;;5092743;28;19912;-65
2021/07/16 13:46:45;;;;;;;;;;;25.70;52.60;;;;;;5085593;28;20468;-65
2021/07/16 13:49:11;;;;;;;;;;;25.70;52.60;;;;;;5088995;28;19912;-65
2021/07/16 13:51:36;;;;;;;;;;;25.70;52.60;;;;;;5077676;28;20382;-65
2021/07/16 13:54:02;;;;;;;;;;;25.70;52.50;;;;;;5087414;28;19908;-65
2021/07/16 13:56:28;;;;;;;;;;;25.70;52.50;;;;;;5084187;28;20266;-65
2021/07/16 13:58:53;;;;;;;;;;;25.70;52.50;;;;;;5083577;28;19972;-65
2021/07/16 14:01:19;;;;;;;;;;;25.70;52.50;;;;;;5067979;28;19959;-64
2021/07/16 14:03:44;;;;;;;;;;;25.70;53.10;;;;;;5076541;28;19916;-64
2021/07/16 14:06:10;;;;;;;;;;;25.70;53.10;;;;;;5083424;28;19911;-63
2021/07/16 14:08:35;;;;;;;;;;;25.70;52.60;;;;;;5070134;28;19916;-64
2021/07/16 14:11:01;;;;;;;;;;;25.70;52.60;;;;;;5082421;28;20317;-64
2021/07/16 14:13:26;;;;;;;;;;;25.70;52.60;;;;;;5089177;28;19916;-64
2021/07/16 14:15:52;;;;;;;;;;;25.70;52.60;;;;;;5085532;28;20383;-63